Sea Island, Georgia
Current Conditions -  °F | °C
As of 4:53 AM on Sunday 23 Nov 2014 (Local Time) from KSSI Reporting Station
Moderate Rain Moderate Rain  
Wind Chill: 63°   Ceiling: 2600
Heat Index: 63°   Visibility: 3mi
Dew Point: 63°   Wind: 14mph
Humidity: 100%   Direction: 90°E
Pressure: 30.04"   Gusts: NA
Location:  31.18°N, 81.35°W
Report Text: KSSI 230953Z AUTO 09012KT 3SM RA BR SCT021 BKN026 OVC033 17/17 A3004 RMK AO2 SLP172 P0022 T01720172
Loading
Personal Weather Stations






























Interactive Weather Map New forecast layout! Learn more

10-Day Weather Forecast

Advertisements
Track Severe Weather on mobile